Time,TemperatureF,DewpointF,PressureIn,WindDirection,WindDirectionDegrees,WindSpeedMPH,WindSpeedGustMPH,Humidity,HourlyPrecipIn,Conditions,Clouds,dailyrainin,SoftwareType,DateUTC
2013-11-23 00:12:00,-999.0,-99.9,29.79,North,-999,-999.0,-999.0,-999,0.00,,,0.00,weatherlink.com 1.10,2013-11-23 05:12:00,
2013-11-23 00:27:00,-999.0,-99.9,29.79,North,-999,-999.0,-999.0,-999,0.00,,,0.00,weatherlink.com 1.10,2013-11-23 05:27:00,
2013-11-23 00:42:00,-999.0,-99.9,29.78,North,-999,-999.0,-999.0,-999,0.00,,,0.00,weatherlink.com 1.10,2013-11-23 05:42:00,
2013-11-23 00:57:00,-999.0,-99.9,29.77,North,-999,-999.0,-999.0,-999,0.00,,,0.00,weatherlink.com 1.10,2013-11-23 05:57:00,
2013-11-23 01:12:00,-999.0,-99.9,29.77,North,-999,-999.0,-999.0,-999,0.00,,,0.00,weatherlink.com 1.10,2013-11-23 06:12:00,
2013-11-23 01:27:00,-999.0,-99.9,29.77,North,-999,-999.0,-999.0,-999,0.00,,,0.00,weatherlink.com 1.10,2013-11-23 06:27:00,
2013-11-23 01:42:00,-999.0,-99.9,29.77,North,-999,-999.0,-999.0,-999,0.00,,,0.00,weatherlink.com 1.10,2013-11-23 06:42:00,
2013-11-23 01:58:00,-999.0,-99.9,29.77,North,-999,-999.0,-999.0,-999,0.00,,,0.00,weatherlink.com 1.10,2013-11-23 06:58:00,
2013-11-23 02:13:00,-999.0,-99.9,29.77,North,-999,-999.0,-999.0,-999,0.00,,,0.00,weatherlink.com 1.10,2013-11-23 07:13:00,
2013-11-23 02:28:00,-999.0,-99.9,29.77,North,-999,-999.0,-999.0,-999,0.00,,,0.00,weatherlink.com 1.10,2013-11-23 07:28:00,
2013-11-23 02:43:00,-999.0,-99.9,29.76,North,-999,-999.0,-999.0,-999,0.00,,,0.00,weatherlink.com 1.10,2013-11-23 07:43:00,
2013-11-23 02:58:00,-999.0,-99.9,29.75,North,-999,-999.0,-999.0,-999,0.00,,,0.00,weatherlink.com 1.10,2013-11-23 07:58:00,
2013-11-23 03:13:00,-999.0,-99.9,29.75,North,-999,-999.0,-999.0,-999,0.00,,,0.00,weatherlink.com 1.10,2013-11-23 08:13:00,
2013-11-23 03:28:00,-999.0,-99.9,29.75,North,-999,-999.0,-999.0,-999,0.00,,,0.00,weatherlink.com 1.10,2013-11-23 08:28:00,
2013-11-23 03:43:00,-999.0,-99.9,29.75,North,-999,-999.0,-999.0,-999,0.00,,,0.00,weatherlink.com 1.10,2013-11-23 08:43:00,
2013-11-23 03:58:00,-999.0,-99.9,29.76,North,-999,-999.0,-999.0,-999,0.00,,,0.00,weatherlink.com 1.10,2013-11-23 08:58:00,
2013-11-23 04:13:00,-999.0,-99.9,29.76,North,-999,-999.0,-999.0,-999,0.00,,,0.00,weatherlink.com 1.10,2013-11-23 09:13:00,
2013-11-23 04:28:00,-999.0,-99.9,29.76,North,-999,-999.0,-999.0,-999,0.00,,,0.00,weatherlink.com 1.10,2013-11-23 09:28:00,
2013-11-23 04:43:00,-999.0,-99.9,29.76,North,-999,-999.0,-999.0,-999,0.00,,,0.00,weatherlink.com 1.10,2013-11-23 09:43:00,
2013-11-23 04:58:00,-999.0,-99.9,29.77,North,-999,-999.0,-999.0,-999,0.00,,,0.00,weatherlink.com 1.10,2013-11-23 09:58:00,
2013-11-23 05:13:00,-999.0,-99.9,29.77,North,-999,-999.0,-999.0,-999,0.00,,,0.00,weatherlink.com 1.10,2013-11-23 10:13:00,
2013-11-23 05:29:00,-999.0,-99.9,29.77,North,-999,-999.0,-999.0,-999,0.00,,,0.00,weatherlink.com 1.10,2013-11-23 10:29:00,
2013-11-23 05:44:00,-999.0,-99.9,29.79,North,-999,-999.0,-999.0,-999,0.00,,,0.00,weatherlink.com 1.10,2013-11-23 10:44:00,
2013-11-23 05:59:00,-999.0,-99.9,29.80,North,-999,-999.0,-999.0,-999,0.00,,,0.00,weatherlink.com 1.10,2013-11-23 10:59:00,
2013-11-23 06:14:00,-999.0,-99.9,29.80,North,-999,-999.0,-999.0,-999,0.00,,,0.00,weatherlink.com 1.10,2013-11-23 11:14:00,
2013-11-23 06:29:00,-999.0,-99.9,29.80,North,-999,-999.0,-999.0,-999,0.00,,,0.00,weatherlink.com 1.10,2013-11-23 11:29:00,
2013-11-23 06:44:00,-999.0,-99.9,29.81,North,-999,-999.0,-999.0,-999,0.00,,,0.00,weatherlink.com 1.10,2013-11-23 11:44:00,
2013-11-23 06:59:00,45.7,-99.9,29.81,West,281,5.0,-999.0,-999,0.00,,,0.00,weatherlink.com 1.10,2013-11-23 11:59:00,
2013-11-23 07:14:00,45.1,36.0,29.82,NW,308,6.0,13.0,70,0.00,,,0.00,weatherlink.com 1.10,2013-11-23 12:14:00,
2013-11-23 07:29:00,45.4,35.0,29.82,NNW,329,14.0,21.0,67,0.00,,,0.00,weatherlink.com 1.10,2013-11-23 12:29:00,
2013-11-23 07:44:00,45.3,34.0,29.83,NNW,343,11.0,23.0,65,0.00,,,0.00,weatherlink.com 1.10,2013-11-23 12:44:00,
2013-11-23 07:59:00,44.9,34.0,29.84,NW,322,11.0,22.0,66,0.00,,,0.00,weatherlink.com 1.10,2013-11-23 12:59:00,
2013-11-23 08:14:00,44.6,34.0,29.84,NW,312,9.0,20.0,66,0.00,,,0.00,weatherlink.com 1.10,2013-11-23 13:14:00,
2013-11-23 08:29:00,44.9,34.0,29.84,NNW,328,12.0,17.0,66,0.00,,,0.00,weatherlink.com 1.10,2013-11-23 13:29:00,
2013-11-23 08:44:00,44.8,34.0,29.84,NW,309,8.0,24.0,66,0.00,,,0.00,weatherlink.com 1.10,2013-11-23 13:44:00,
2013-11-23 08:59:00,44.7,33.0,29.84,NNW,330,16.0,24.0,64,0.00,,,0.00,weatherlink.com 1.10,2013-11-23 13:59:00,
2013-11-23 09:14:00,44.6,33.0,29.84,NNW,335,15.0,21.0,64,0.00,,,0.00,weatherlink.com 1.10,2013-11-23 14:14:00,
2013-11-23 09:29:00,44.8,33.0,29.84,NNW,327,9.0,20.0,64,0.00,,,0.00,weatherlink.com 1.10,2013-11-23 14:29:00,
2013-11-23 09:44:00,45.1,33.0,29.83,NNW,327,14.0,23.0,63,0.00,,,0.00,weatherlink.com 1.10,2013-11-23 14:44:00,
2013-11-23 09:59:00,45.3,33.0,29.83,NNW,329,10.0,17.0,63,0.00,,,0.00,weatherlink.com 1.10,2013-11-23 14:59:00,
2013-11-23 10:14:00,45.4,32.0,29.83,NW,304,12.0,21.0,61,0.00,,,0.00,weatherlink.com 1.10,2013-11-23 15:14:00,
2013-11-23 10:29:00,45.3,32.0,29.82,WNW,301,10.0,20.0,60,0.00,,,0.00,weatherlink.com 1.10,2013-11-23 15:29:00,
2013-11-23 10:44:00,45.7,32.0,29.81,NW,307,17.0,22.0,59,0.00,,,0.00,weatherlink.com 1.10,2013-11-23 15:44:00,
2013-11-23 11:00:00,46.4,32.0,29.81,NW,309,11.0,21.0,57,0.00,,,0.00,weatherlink.com 1.10,2013-11-23 16:00:00,
2013-11-23 11:15:00,46.4,32.0,29.81,WNW,301,17.0,21.0,58,0.00,,,0.00,weatherlink.com 1.10,2013-11-23 16:15:00,
2013-11-23 11:30:00,46.2,31.0,29.80,NNE,14,16.0,21.0,56,0.00,,,0.00,weatherlink.com 1.10,2013-11-23 16:30:00,
2013-11-23 11:45:00,46.8,31.0,29.80,NW,307,11.0,18.0,55,0.00,,,0.00,weatherlink.com 1.10,2013-11-23 16:45:00,
2013-11-23 12:00:00,47.1,31.0,29.80,WNW,300,13.0,21.0,53,0.00,,,0.00,weatherlink.com 1.10,2013-11-23 17:00:00,
2013-11-23 12:15:00,46.7,30.0,29.80,North,349,18.0,22.0,53,0.00,,,0.00,weatherlink.com 1.10,2013-11-23 17:15:00,
2013-11-23 12:30:00,46.7,29.0,29.79,WNW,302,11.0,17.0,50,0.00,,,0.00,weatherlink.com 1.10,2013-11-23 17:30:00,
2013-11-23 12:45:00,47.0,30.0,29.79,NNW,331,10.0,16.0,52,0.00,,,0.00,weatherlink.com 1.10,2013-11-23 17:45:00,
2013-11-23 13:00:00,46.8,28.0,29.79,NNW,335,8.0,17.0,48,0.00,,,0.00,weatherlink.com 1.10,2013-11-23 18:00:00,
2013-11-23 13:15:00,47.6,27.0,29.78,NW,316,6.0,14.0,45,0.00,,,0.00,weatherlink.com 1.10,2013-11-23 18:15:00,
2013-11-23 13:30:00,47.5,26.0,29.78,WNW,297,10.0,15.0,43,0.00,,,0.00,weatherlink.com 1.10,2013-11-23 18:30:00,
2013-11-23 13:45:00,47.6,25.0,29.78,NW,306,8.0,13.0,42,0.00,,,0.00,weatherlink.com 1.10,2013-11-23 18:45:00,
2013-11-23 14:00:00,47.8,24.0,29.78,WNW,302,14.0,19.0,40,0.00,,,0.00,weatherlink.com 1.10,2013-11-23 19:00:00,
2013-11-23 14:15:00,47.6,25.0,29.78,NNW,340,8.0,16.0,42,0.00,,,0.00,weatherlink.com 1.10,2013-11-23 19:15:00,
2013-11-23 14:30:00,47.7,25.0,29.78,NW,319,6.0,14.0,41,0.00,,,0.00,weatherlink.com 1.10,2013-11-23 19:30:00,
2013-11-23 14:45:00,47.2,25.0,29.78,WNW,295,6.0,15.0,42,0.00,,,0.00,weatherlink.com 1.10,2013-11-23 19:45:00,
2013-11-23 15:00:00,46.5,24.0,29.78,NNW,347,5.0,14.0,41,0.00,,,0.00,weatherlink.com 1.10,2013-11-23 20:00:00,
2013-11-23 15:15:00,46.0,25.0,29.79,NNW,348,3.0,8.0,44,0.00,,,0.00,weatherlink.com 1.10,2013-11-23 20:15:00,
2013-11-23 15:30:00,45.3,25.0,29.79,West,280,3.0,7.0,45,0.00,,,0.00,weatherlink.com 1.10,2013-11-23 20:30:00,
2013-11-23 15:45:00,44.9,24.0,29.78,NNW,331,2.0,5.0,44,0.00,,,0.00,weatherlink.com 1.10,2013-11-23 20:45:00,
2013-11-23 16:00:00,44.2,23.0,29.78,NNW,327,3.0,6.0,44,0.00,,,0.00,weatherlink.com 1.10,2013-11-23 21:00:00,
2013-11-23 16:15:00,43.9,22.0,29.78,NW,308,1.0,7.0,42,0.00,,,0.00,weatherlink.com 1.10,2013-11-23 21:15:00,
2013-11-23 16:30:00,43.3,22.0,29.78,WSW,243,0.0,7.0,43,0.00,,,0.00,weatherlink.com 1.10,2013-11-23 21:30:00,
2013-11-23 16:45:00,43.2,20.0,29.78,WNW,285,1.0,7.0,40,0.00,,,0.00,weatherlink.com 1.10,2013-11-23 21:45:00,
2013-11-23 17:00:00,43.2,20.0,29.78,WNW,301,0.0,6.0,40,0.00,,,0.00,weatherlink.com 1.10,2013-11-23 22:00:00,
2013-11-23 17:15:00,42.4,21.0,29.79,WSW,243,0.0,3.0,42,0.00,,,0.00,weatherlink.com 1.10,2013-11-23 22:15:00,
2013-11-23 17:30:00,42.0,21.0,29.78,SW,232,2.0,2.0,44,0.00,,,0.00,weatherlink.com 1.10,2013-11-23 22:30:00,
2013-11-23 17:45:00,41.5,21.0,29.78,WNW,301,2.0,5.0,45,0.00,,,0.00,weatherlink.com 1.10,2013-11-23 22:45:00,
2013-11-23 18:00:00,41.6,22.0,29.78,WNW,299,1.0,4.0,46,0.00,,,0.00,weatherlink.com 1.10,2013-11-23 23:00:00,
2013-11-23 18:15:00,41.1,23.0,29.78,NW,304,2.0,4.0,48,0.00,,,0.00,weatherlink.com 1.10,2013-11-23 23:15:00,
2013-11-23 18:30:00,41.9,23.0,29.78,WNW,303,3.0,10.0,47,0.00,,,0.00,weatherlink.com 1.10,2013-11-23 23:30:00,
2013-11-23 18:45:00,41.9,23.0,29.78,NW,322,1.0,9.0,48,0.00,,,0.00,weatherlink.com 1.10,2013-11-23 23:45:00,
2013-11-23 19:00:00,41.4,23.0,29.77,NW,321,2.0,7.0,49,0.00,,,0.00,weatherlink.com 1.10,2013-11-24 00:00:00,
2013-11-23 19:15:00,40.7,23.0,29.77,WNW,300,0.0,5.0,50,0.00,,,0.00,weatherlink.com 1.10,2013-11-24 00:15:00,
2013-11-23 19:30:00,40.0,23.0,29.77,WNW,283,0.0,1.0,51,0.00,,,0.00,weatherlink.com 1.10,2013-11-24 00:30:00,
2013-11-23 19:45:00,39.5,23.0,29.77,SW,236,0.0,2.0,52,0.00,,,0.00,weatherlink.com 1.10,2013-11-24 00:45:00,
2013-11-23 20:00:00,38.8,24.0,29.77,West,281,1.0,1.0,55,0.00,,,0.00,weatherlink.com 1.10,2013-11-24 01:00:00,
2013-11-23 20:16:00,38.7,24.0,29.77,NW,307,3.0,4.0,56,0.00,,,0.00,weatherlink.com 1.10,2013-11-24 01:16:00,
2013-11-23 20:31:00,38.9,25.0,29.77,WNW,293,1.0,4.0,57,0.00,,,0.00,weatherlink.com 1.10,2013-11-24 01:31:00,
2013-11-23 20:46:00,38.4,25.0,29.77,NNW,337,0.0,3.0,58,0.00,,,0.00,weatherlink.com 1.10,2013-11-24 01:46:00,
2013-11-23 21:01:00,38.4,25.0,29.76,WNW,303,5.0,7.0,59,0.00,,,0.00,weatherlink.com 1.10,2013-11-24 02:01:00,
2013-11-23 21:16:00,39.2,26.0,29.75,NW,311,2.0,6.0,59,0.00,,,0.00,weatherlink.com 1.10,2013-11-24 02:16:00,
2013-11-23 21:31:00,39.5,25.0,29.75,NNW,337,3.0,10.0,57,0.00,,,0.00,weatherlink.com 1.10,2013-11-24 02:31:00,
2013-11-23 21:46:00,39.2,25.0,29.76,NW,320,11.0,22.0,58,0.00,,,0.00,weatherlink.com 1.10,2013-11-24 02:46:00,
2013-11-23 22:01:00,38.1,26.0,29.77,NW,316,11.0,21.0,61,0.00,,,0.00,weatherlink.com 1.10,2013-11-24 03:01:00,
2013-11-23 22:16:00,37.6,25.0,29.77,WNW,302,12.0,21.0,61,0.00,,,0.00,weatherlink.com 1.10,2013-11-24 03:16:00,
2013-11-23 22:31:00,37.4,23.0,29.77,NW,309,13.0,21.0,56,0.00,,,0.00,weatherlink.com 1.10,2013-11-24 03:31:00,
2013-11-23 22:46:00,37.1,22.0,29.76,NW,316,9.0,21.0,55,0.00,,,0.00,weatherlink.com 1.10,2013-11-24 03:46:00,
2013-11-23 23:01:00,36.5,22.0,29.76,NW,316,10.0,24.0,57,0.00,,,0.00,weatherlink.com 1.10,2013-11-24 04:01:00,
2013-11-23 23:16:00,35.8,22.0,29.76,WNW,302,14.0,26.0,58,0.00,,,0.00,weatherlink.com 1.10,2013-11-24 04:16:00,
2013-11-23 23:31:00,35.7,22.0,29.76,NW,319,11.0,30.0,57,0.00,,,0.00,weatherlink.com 1.10,2013-11-24 04:31:00,
2013-11-23 23:46:00,35.1,21.0,29.76,NNW,330,16.0,20.0,56,0.00,,,0.00,weatherlink.com 1.10,2013-11-24 04:46:00,